Time;durP1;ratioP1;P1;durP2;ratioP2;P2;SDS_P1;SDS_P2;PMS_P1;PMS_P2;Temp;Humidity;BMP_temperature;BMP_pressure;BME280_temperature;BME280_humidity;BME280_pressure;Samples;Min_cycle;Max_cycle;Signal;HPM_P1;HPM_P2
2022/10/12 00:00:40;;;;;;;4.80;2.85;;;5.60;1.00;;;;;;5037888;28;20026;-78
2022/10/12 00:03:06;;;;;;;6.70;2.80;;;5.70;1.00;;;;;;5037816;28;20027;-79
2022/10/12 00:05:31;;;;;;;5.53;3.15;;;5.80;1.00;;;;;;5037687;28;20028;-79
2022/10/12 00:07:57;;;;;;;8.05;3.05;;;5.80;1.00;;;;;;5037158;28;20029;-79
2022/10/12 00:10:23;;;;;;;5.18;2.92;;;5.70;1.00;;;;;;5036987;28;20041;-78
2022/10/12 00:12:48;;;;;;;4.78;3.40;;;5.70;1.00;;;;;;5037097;28;20473;-78
2022/10/12 00:15:14;;;;;;;11.07;4.18;;;5.80;1.00;;;;;;5037277;28;20099;-78
2022/10/12 00:17:39;;;;;;;5.88;3.28;;;5.80;1.00;;;;;;5051351;28;20400;-78
2022/10/12 00:20:05;;;;;;;10.30;3.58;;;5.90;1.00;;;;;;5056821;28;20036;-78
2022/10/12 00:22:31;;;;;;;6.07;3.67;;;5.90;1.00;;;;;;5056438;28;20071;-78
2022/10/12 00:24:56;;;;;;;4.80;3.50;;;5.90;1.00;;;;;;5019943;28;20029;-78
2022/10/12 00:27:22;;;;;;;7.65;3.67;;;5.90;1.00;;;;;;5036152;28;20021;-79
2022/10/12 00:29:49;;;;;;;4.95;3.35;;;5.90;1.00;;;;;;5036158;28;20370;-79
2022/10/12 00:32:15;;;;;;;10.25;3.85;;;5.90;1.00;;;;;;5052406;22;20060;-75
2022/10/12 00:34:41;;;;;;;7.22;3.80;;;5.90;1.00;;;;;;5047158;28;20021;-75
2022/10/12 00:37:19;;;;;;;7.40;3.70;;;5.90;1.00;;;;;;5043868;28;20029;-75
2022/10/12 00:39:45;;;;;;;6.32;3.83;;;6.00;1.00;;;;;;5016542;28;20113;-75
2022/10/12 00:42:12;;;;;;;8.68;4.10;;;5.90;1.00;;;;;;5033764;28;20104;-75
2022/10/12 00:44:40;;;;;;;6.43;3.50;;;6.10;1.00;;;;;;5035694;28;20022;-75
2022/10/12 00:47:15;;;;;;;10.30;4.05;;;5.90;1.00;;;;;;5035893;28;20470;-75
2022/10/12 00:49:42;;;;;;;9.20;4.00;;;5.90;1.00;;;;;;5035798;28;20419;-75
2022/10/12 00:52:12;;;;;;;8.68;4.20;;;6.00;1.00;;;;;;5034488;28;20044;-75
2022/10/12 00:54:43;;;;;;;10.95;4.20;;;6.10;1.00;;;;;;5034492;28;20025;-75
2022/10/12 00:57:12;;;;;;;10.70;4.18;;;6.20;1.00;;;;;;5035594;28;20369;-75
2022/10/12 01:00:01;;;;;;;9.48;3.90;;;6.20;1.00;;;;;;5035708;28;20072;-75
2022/10/12 01:02:29;;;;;;;7.03;4.47;;;6.20;1.00;;;;;;5033657;28;20044;-75
2022/10/12 01:04:55;;;;;;;15.13;4.93;;;6.20;1.00;;;;;;5035601;28;20033;-75
2022/10/12 01:07:21;;;;;;;7.90;4.47;;;6.20;1.00;;;;;;5050924;28;20025;-75
2022/10/12 01:09:47;;;;;;;11.30;4.75;;;6.30;1.00;;;;;;5055211;28;20390;-75
2022/10/12 01:12:15;;;;;;;11.45;4.43;;;6.30;1.00;;;;;;5055298;28;20143;-75
2022/10/12 01:14:40;;;;;;;10.38;5.00;;;6.40;1.00;;;;;;5055309;28;20029;-75
2022/10/12 01:17:47;;;;;;;10.10;4.72;;;6.40;1.00;;;;;;5055326;28;20101;-75
2022/10/12 01:20:25;;;;;;;9.98;4.30;;;6.40;1.00;;;;;;5055400;28;20044;-75
2022/10/12 01:23:32;;;;;;;9.20;4.57;;;6.30;1.00;;;;;;5053924;28;20075;-75
2022/10/12 01:26:37;;;;;;;11.35;5.20;;;6.30;1.00;;;;;;5026513;28;20400;-75
2022/10/12 01:29:37;;;;;;;9.90;4.97;;;6.60;1.00;;;;;;5054987;28;20036;-75
2022/10/12 01:32:26;;;;;;;8.38;5.03;;;6.50;1.00;;;;;;5053365;28;20048;-75
2022/10/12 01:35:04;;;;;;;14.15;6.07;;;6.60;1.00;;;;;;5053641;28;20033;-75
2022/10/12 01:37:35;;;;;;;10.00;4.40;;;6.60;1.00;;;;;;5054294;28;20254;-75
2022/10/12 01:40:09;;;;;;;12.05;5.25;;;6.70;1.00;;;;;;5051427;28;20075;-75
2022/10/12 01:42:39;;;;;;;8.30;4.65;;;6.60;1.00;;;;;;5035004;28;20029;-75
2022/10/12 01:45:08;;;;;;;10.80;4.53;;;6.60;1.00;;;;;;5035026;28;20104;-75
2022/10/12 01:47:36;;;;;;;9.40;5.03;;;6.60;1.00;;;;;;5034838;28;20030;-75
2022/10/12 01:50:04;;;;;;;12.27;4.93;;;6.80;1.00;;;;;;5033584;28;20045;-75
2022/10/12 01:52:35;;;;;;;14.57;5.30;;;6.80;1.00;;;;;;5034393;28;20041;-75
2022/10/12 01:55:24;;;;;;;15.10;5.13;;;6.90;1.00;;;;;;5034943;28;20411;-75
2022/10/12 01:58:11;;;;;;;13.30;5.47;;;6.80;1.00;;;;;;5034727;28;20021;-75
2022/10/12 02:00:43;;;;;;;15.88;5.05;;;6.90;1.00;;;;;;5042674;28;20028;-75
2022/10/12 02:03:35;;;;;;;10.20;4.88;;;6.90;1.00;;;;;;5036972;28;20067;-75
2022/10/12 02:06:06;;;;;;;12.98;4.65;;;6.90;1.00;;;;;;5040039;28;20072;-75
2022/10/12 02:09:00;;;;;;;11.88;4.93;;;6.80;1.00;;;;;;5053152;28;20090;-75
2022/10/12 02:11:27;;;;;;;15.50;4.82;;;6.90;1.00;;;;;;5053127;28;20447;-75
2022/10/12 02:14:02;;;;;;;13.20;5.70;;;7.00;1.00;;;;;;5052577;28;20028;-75
2022/10/12 02:16:33;;;;;;;10.52;4.70;;;7.00;1.00;;;;;;5034315;28;20063;-75
2022/10/12 02:19:00;;;;;;;7.03;4.72;;;6.90;1.00;;;;;;5034135;28;20029;-75
2022/10/12 02:21:33;;;;;;;11.82;4.97;;;7.00;1.00;;;;;;5034095;28;20021;-75
2022/10/12 02:24:04;;;;;;;16.88;5.68;;;7.00;1.00;;;;;;5014474;28;20037;-75
2022/10/12 02:26:32;;;;;;;11.73;5.25;;;7.00;1.00;;;;;;5014474;28;20381;-75
2022/10/12 02:29:01;;;;;;;12.00;5.22;;;7.00;1.00;;;;;;5012885;28;20026;-75
2022/10/12 02:32:05;;;;;;;12.90;5.47;;;6.90;1.00;;;;;;5021179;28;20501;-75
2022/10/12 02:34:36;;;;;;;16.75;5.75;;;7.20;1.00;;;;;;5016093;28;20128;-75
2022/10/12 02:37:13;;;;;;;12.43;5.10;;;7.10;1.00;;;;;;5034076;28;20021;-75
2022/10/12 02:39:55;;;;;;;18.50;5.80;;;7.10;1.00;;;;;;5034096;28;20071;-75
2022/10/12 02:42:29;;;;;;;11.57;5.65;;;7.00;1.00;;;;;;5033888;28;20026;-75
2022/10/12 02:44:58;;;;;;;15.82;5.45;;;7.10;1.00;;;;;;5033938;28;20034;-75
2022/10/12 02:47:27;;;;;;;11.38;6.45;;;7.10;1.00;;;;;;5033832;28;20428;-75
2022/10/12 02:49:54;;;;;;;12.25;5.38;;;7.10;1.00;;;;;;5032913;28;20041;-75
2022/10/12 02:52:21;;;;;;;9.63;4.70;;;7.10;1.00;;;;;;5033808;28;20582;-75
2022/10/12 02:54:47;;;;;;;12.38;5.07;;;7.10;1.00;;;;;;5034103;28;20022;-75
2022/10/12 02:57:12;;;;;;;16.80;5.85;;;7.20;1.00;;;;;;5033641;28;20176;-75
2022/10/12 02:59:38;;;;;;;15.85;5.53;;;7.10;1.00;;;;;;5032475;28;20029;-75
2022/10/12 03:02:03;;;;;;;15.88;5.82;;;7.20;1.00;;;;;;5033900;28;20029;-75
2022/10/12 03:04:29;;;;;;;13.00;5.35;;;7.00;1.00;;;;;;5033418;28;20024;-75
2022/10/12 03:06:54;;;;;;;13.30;5.38;;;7.00;1.00;;;;;;5046801;28;20346;-75
2022/10/12 03:09:20;;;;;;;14.30;5.38;;;6.90;1.00;;;;;;5033220;28;20040;-75
2022/10/12 03:11:46;;;;;;;11.57;5.88;;;6.90;1.00;;;;;;5033334;28;20096;-75
2022/10/12 03:14:13;;;;;;;12.43;5.13;;;7.00;1.00;;;;;;5033644;28;20036;-75
2022/10/12 03:16:39;;;;;;;11.07;4.85;;;7.00;1.00;;;;;;5033695;28;20373;-75
2022/10/12 03:19:05;;;;;;;14.15;5.20;;;7.00;1.00;;;;;;5032549;28;20408;-75
2022/10/12 03:21:31;;;;;;;9.93;4.65;;;7.00;1.00;;;;;;5033475;28;20453;-75
2022/10/12 03:23:56;;;;;;;11.25;4.95;;;6.80;1.00;;;;;;5033437;28;20022;-75
2022/10/12 03:26:22;;;;;;;18.52;5.53;;;6.90;1.00;;;;;;5033329;28;20032;-75
2022/10/12 03:28:47;;;;;;;10.73;5.03;;;6.90;1.00;;;;;;5032156;28;20025;-75
2022/10/12 03:31:13;;;;;;;15.05;5.13;;;6.80;1.00;;;;;;5033379;28;20104;-75
2022/10/12 03:33:39;;;;;;;8.00;4.90;;;6.80;1.00;;;;;;5032926;28;20389;-75
2022/10/12 03:36:04;;;;;;;12.75;4.55;;;6.70;1.00;;;;;;5033391;28;20017;-75
2022/10/12 03:38:30;;;;;;;17.60;4.93;;;6.60;1.00;;;;;;5033131;28;20025;-75
2022/10/12 03:40:56;;;;;;;11.60;4.85;;;6.50;1.00;;;;;;5033145;28;20412;-75
2022/10/12 03:43:22;;;;;;;7.75;4.78;;;6.50;1.00;;;;;;5031666;28;20029;-75
2022/10/12 03:45:47;;;;;;;9.63;4.45;;;6.50;1.00;;;;;;5033239;28;20093;-75
2022/10/12 03:48:13;;;;;;;10.05;4.95;;;6.40;1.00;;;;;;5033446;28;20559;-75
2022/10/12 03:50:39;;;;;;;16.13;4.95;;;6.40;1.00;;;;;;5033029;28;20030;-75
2022/10/12 03:53:05;;;;;;;11.23;5.65;;;6.40;1.00;;;;;;5033121;28;20064;-75
2022/10/12 03:55:32;;;;;;;15.20;5.07;;;6.30;1.00;;;;;;5032083;28;20033;-75
2022/10/12 03:57:57;;;;;;;11.60;5.18;;;6.20;99.90;;;;;;5031785;28;20024;-75
2022/10/12 04:00:24;;;;;;;13.48;4.35;;;6.10;99.90;;;;;;5033109;28;20029;-75
2022/10/12 04:02:49;;;;;;;8.48;4.80;;;6.00;99.90;;;;;;5036588;28;20030;-75
2022/10/12 04:05:15;;;;;;;11.35;4.63;;;6.10;99.90;;;;;;5038425;28;20025;-75
2022/10/12 04:07:40;;;;;;;12.73;5.55;;;6.10;99.90;;;;;;5055516;28;20021;-76
2022/10/12 04:10:06;;;;;;;9.68;5.53;;;6.10;99.90;;;;;;5056373;28;20469;-75
2022/10/12 04:12:32;;;;;;;10.43;5.50;;;6.10;99.90;;;;;;5055245;28;20028;-75
2022/10/12 04:14:57;;;;;;;11.85;5.90;;;6.10;1.00;;;;;;5041449;28;20036;-75
2022/10/12 04:17:23;;;;;;;13.55;5.80;;;6.10;1.00;;;;;;5036677;28;20033;-75
2022/10/12 04:19:49;;;;;;;9.52;4.70;;;6.10;1.00;;;;;;5036590;28;20130;-75
2022/10/12 04:22:14;;;;;;;8.98;4.47;;;6.10;1.00;;;;;;5036369;28;20021;-75
2022/10/12 04:24:40;;;;;;;9.75;5.22;;;6.10;1.00;;;;;;5036282;28;20052;-75
2022/10/12 04:27:06;;;;;;;10.25;5.03;;;6.10;1.00;;;;;;5036213;28;20473;-75
2022/10/12 04:29:31;;;;;;;13.57;5.10;;;6.20;1.00;;;;;;5036490;28;20068;-75
2022/10/12 04:31:57;;;;;;;11.55;5.10;;;6.20;1.00;;;;;;5034521;28;20049;-75
2022/10/12 04:34:22;;;;;;;11.23;4.82;;;6.10;1.00;;;;;;5036323;28;20114;-75
2022/10/12 04:36:48;;;;;;;10.93;5.40;;;6.10;1.00;;;;;;5036064;28;20125;-75
2022/10/12 04:39:14;;;;;;;9.70;5.25;;;6.00;99.90;;;;;;5034787;28;20026;-75
2022/10/12 04:41:39;;;;;;;10.38;4.93;;;6.00;99.90;;;;;;5035740;28;20025;-75
2022/10/12 04:44:06;;;;;;;10.88;5.03;;;6.00;99.90;;;;;;5036558;28;20097;-75
2022/10/12 04:46:32;;;;;;;10.00;4.75;;;5.80;99.90;;;;;;5054901;28;20095;-75
2022/10/12 04:48:57;;;;;;;9.93;4.47;;;5.80;99.90;;;;;;5055691;28;20472;-75
2022/10/12 04:51:23;;;;;;;8.18;4.70;;;5.80;99.90;;;;;;5054534;28;20037;-75
2022/10/12 04:53:49;;;;;;;8.68;4.50;;;5.80;99.90;;;;;;5055694;28;20420;-75
2022/10/12 04:56:15;;;;;;;8.90;4.97;;;5.70;99.90;;;;;;5054406;28;20025;-75
2022/10/12 04:58:41;;;;;;;9.68;4.55;;;5.70;99.90;;;;;;5055480;28;20025;-75
2022/10/12 05:01:07;;;;;;;11.48;5.20;;;5.60;99.90;;;;;;5040204;28;20030;-75
2022/10/12 05:03:32;;;;;;;11.05;4.93;;;5.50;99.90;;;;;;5034445;28;20033;-75
2022/10/12 05:05:58;;;;;;;11.77;4.72;;;5.50;99.90;;;;;;5043145;28;20017;-76
2022/10/12 05:08:24;;;;;;;12.30;5.20;;;5.50;99.90;;;;;;5033326;28;20017;-76
2022/10/12 05:10:50;;;;;;;8.98;5.30;;;5.50;99.90;;;;;;5043223;28;20025;-75
2022/10/12 05:13:15;;;;;;;15.18;5.45;;;5.40;99.90;;;;;;5033873;28;20025;-76
2022/10/12 05:15:42;;;;;;;8.35;4.78;;;5.50;99.90;;;;;;5034754;28;20499;-76
2022/10/12 05:18:07;;;;;;;10.52;5.57;;;5.40;99.90;;;;;;5048735;28;20022;-75
2022/10/12 05:20:36;;;;;;;5.32;4.50;;;5.40;99.90;;;;;;5035381;28;20342;-75
2022/10/12 05:23:03;;;;;;;8.30;4.57;;;5.50;99.90;;;;;;5035152;28;20091;-75
2022/10/12 05:25:29;;;;;;;10.40;4.97;;;5.50;99.90;;;;;;5026873;28;20370;-76
2022/10/12 05:27:55;;;;;;;13.77;4.78;;;5.50;1.00;;;;;;5022185;28;20024;-76
2022/10/12 05:30:21;;;;;;;9.30;4.90;;;5.30;99.90;;;;;;5034884;28;20410;-76
2022/10/12 05:32:47;;;;;;;10.38;5.35;;;5.20;99.90;;;;;;5053580;28;20186;-76
2022/10/12 05:35:13;;;;;;;11.30;5.28;;;5.30;1.00;;;;;;5054186;28;20099;-76
2022/10/12 05:37:38;;;;;;;9.02;4.97;;;5.30;1.00;;;;;;5054614;28;20060;-76
2022/10/12 05:40:05;;;;;;;12.45;5.43;;;5.30;1.00;;;;;;5040822;28;20033;-75
2022/10/12 05:42:30;;;;;;;11.00;5.15;;;5.20;1.00;;;;;;5033810;28;20029;-75
2022/10/12 05:44:56;;;;;;;9.63;5.15;;;5.20;1.00;;;;;;5034843;28;20021;-76
2022/10/12 05:47:21;;;;;;;12.52;6.07;;;5.20;1.00;;;;;;5035349;28;20025;-76
2022/10/12 05:49:47;;;;;;;10.68;5.88;;;5.10;1.00;;;;;;5034851;28;20496;-76
2022/10/12 05:52:12;;;;;;;48.85;7.57;;;5.10;1.00;;;;;;5038976;28;20036;-75
2022/10/12 05:54:38;;;;;;;16.67;6.25;;;5.10;1.00;;;;;;5048391;28;20499;-76
2022/10/12 05:57:04;;;;;;;13.50;6.35;;;5.10;1.00;;;;;;5054220;28;20052;-76
2022/10/12 05:59:29;;;;;;;13.38;6.93;;;5.10;1.00;;;;;;5054099;28;20025;-76
2022/10/12 06:01:55;;;;;;;15.25;7.03;;;5.00;1.00;;;;;;5054163;28;20014;-76
2022/10/12 06:04:20;;;;;;;11.95;6.32;;;5.10;1.00;;;;;;5054371;28;20029;-76
2022/10/12 06:06:46;;;;;;;11.55;6.95;;;5.10;1.00;;;;;;5043519;28;20100;-75
2022/10/12 06:09:12;;;;;;;16.08;6.95;;;5.10;1.00;;;;;;5034079;28;20382;-75
2022/10/12 06:11:37;;;;;;;15.35;7.85;;;5.20;1.00;;;;;;5034399;28;20025;-76
2022/10/12 06:14:03;;;;;;;16.55;7.93;;;5.30;1.00;;;;;;5034032;28;20108;-76
2022/10/12 06:16:29;;;;;;;12.75;7.75;;;5.50;1.00;;;;;;5032552;28;20032;-76
2022/10/12 06:18:54;;;;;;;18.38;8.23;;;5.50;1.00;;;;;;5026159;28;20022;-76
2022/10/12 06:21:20;;;;;;;18.15;8.40;;;5.50;1.00;;;;;;5033876;28;20029;-75
2022/10/12 06:23:45;;;;;;;16.13;7.45;;;5.70;1.00;;;;;;5033481;28;20362;-75
2022/10/12 06:26:11;;;;;;;16.85;9.00;;;5.70;1.00;;;;;;5033897;28;20033;-76
2022/10/12 06:28:36;;;;;;;14.48;8.23;;;5.70;1.00;;;;;;5032386;28;20021;-76
2022/10/12 06:31:02;;;;;;;13.63;8.60;;;5.70;99.90;;;;;;5033915;28;20033;-76
2022/10/12 06:33:28;;;;;;;20.83;9.65;;;5.80;99.90;;;;;;5032000;28;20404;-76
2022/10/12 06:35:54;;;;;;;15.70;8.63;;;6.00;99.90;;;;;;5034104;28;20021;-76
2022/10/12 06:38:20;;;;;;;18.80;9.85;;;6.20;99.90;;;;;;5043629;28;20025;-76
2022/10/12 06:40:46;;;;;;;14.50;8.55;;;6.20;99.90;;;;;;5052370;28;20427;-76
2022/10/12 06:43:11;;;;;;;15.40;8.85;;;6.40;99.90;;;;;;5050108;28;20089;-75
2022/10/12 06:45:37;;;;;;;14.88;8.55;;;6.40;99.90;;;;;;5033716;28;20028;-76
2022/10/12 06:48:04;;;;;;;11.23;8.30;;;6.60;99.90;;;;;;5033086;28;20034;-76
2022/10/12 06:50:29;;;;;;;21.25;9.07;;;6.70;99.90;;;;;;5032238;28;20033;-75
2022/10/12 06:52:55;;;;;;;17.83;8.73;;;6.70;99.90;;;;;;5033610;28;20022;-76
2022/10/12 06:55:20;;;;;;;13.80;8.82;;;6.90;99.90;;;;;;5034009;28;20048;-76
2022/10/12 06:57:46;;;;;;;19.70;9.15;;;6.90;99.90;;;;;;5030224;28;20029;-76
2022/10/12 07:00:12;;;;;;;14.70;8.77;;;6.90;99.90;;;;;;5032557;28;20378;-75
2022/10/12 07:02:38;;;;;;;16.27;8.90;;;6.80;99.90;;;;;;5031545;28;20017;-76
2022/10/12 07:05:05;;;;;;;20.23;8.95;;;7.00;99.90;;;;;;5030560;28;20025;-76
2022/10/12 07:07:35;;;;;;;20.40;9.25;;;7.10;99.90;;;;;;5031639;28;20357;-76
2022/10/12 07:10:01;;;;;;;;;;;7.30;99.90;;;;;;5031934;28;20109;-76
2022/10/12 07:12:26;;;;;;;17.67;9.30;;;8.00;99.90;;;;;;5032426;28;20002;-76
2022/10/12 07:14:53;;;;;;;25.70;12.05;;;9.40;99.90;;;;;;5033657;28;20476;-76
2022/10/12 07:17:20;;;;;;;23.58;12.27;;;13.40;99.90;;;;;;5033657;28;20025;-76
2022/10/12 07:19:45;;;;;;;17.48;11.77;;;15.90;99.90;;;;;;5033048;28;20388;-76
2022/10/12 07:22:11;;;;;;;22.52;12.68;;;17.80;80.60;;;;;;5031586;28;20030;-76
2022/10/12 07:24:36;;;;;;;14.68;10.18;;;19.70;41.80;;;;;;5022578;28;20442;-77
2022/10/12 07:27:08;;;;;;;14.82;9.15;;;20.90;28.80;;;;;;5032469;28;20095;-76
2022/10/12 07:29:34;;;;;;;17.05;7.68;;;20.80;16.70;;;;;;5036315;28;20116;-76
2022/10/12 07:32:00;;;;;;;14.80;7.88;;;19.80;7.30;;;;;;5032401;28;20145;-75
2022/10/12 07:34:27;;;;;;;10.40;7.65;;;19.50;3.40;;;;;;5040977;28;20036;-76
2022/10/12 07:36:53;;;;;;;12.13;7.38;;;21.70;1.00;;;;;;5036626;28;20108;-76
2022/10/12 07:39:19;;;;;;;11.45;6.07;;;21.10;1.00;;;;;;5035389;28;20105;-75
2022/10/12 07:41:45;;;;;;;14.93;7.03;;;19.30;1.00;;;;;;5039338;28;20021;-76
2022/10/12 07:44:11;;;;;;;12.43;6.43;;;20.40;1.00;;;;;;5036867;28;20098;-75
2022/10/12 07:46:36;;;;;;;9.45;6.30;;;21.80;1.00;;;;;;5041443;28;20029;-75
2022/10/12 07:49:03;;;;;;;17.02;7.30;;;24.60;1.00;;;;;;5036057;28;20025;-75
2022/10/12 07:51:29;;;;;;;10.38;5.85;;;25.80;1.00;;;;;;5035587;28;20397;-76
2022/10/12 07:53:54;;;;;;;10.00;5.38;;;26.60;1.00;;;;;;5041194;28;20021;-75
2022/10/12 07:56:20;;;;;;;10.10;5.63;;;27.70;1.00;;;;;;5036365;28;20416;-75
2022/10/12 07:58:52;;;;;;;9.95;5.78;;;28.20;1.00;;;;;;5038301;28;20712;-75
2022/10/12 08:01:21;;;;;;;8.43;4.95;;;29.40;1.00;;;;;;5030423;28;20026;-75
2022/10/12 08:03:47;;;;;;;10.85;6.00;;;29.70;1.00;;;;;;5035700;28;20028;-75
2022/10/12 08:06:19;;;;;;;12.15;5.05;;;30.30;1.00;;;;;;5033203;28;20065;-76
2022/10/12 08:08:45;;;;;;;10.15;5.00;;;29.60;1.00;;;;;;5035162;28;20032;-75
2022/10/12 08:11:11;;;;;;;10.10;5.18;;;29.60;1.00;;;;;;5036142;28;20034;-75
2022/10/12 08:13:37;;;;;;;11.98;5.05;;;30.90;1.00;;;;;;5040216;28;20385;-76
2022/10/12 08:16:05;;;;;;;9.75;4.90;;;30.20;1.00;;;;;;5035065;28;20499;-75
2022/10/12 08:18:31;;;;;;;8.98;4.80;;;31.20;1.00;;;;;;5027042;28;20025;-75
2022/10/12 08:20:57;;;;;;;9.00;4.45;;;32.40;1.00;;;;;;5036662;28;20091;-76
2022/10/12 08:23:23;;;;;;;9.43;4.38;;;32.20;1.00;;;;;;5033350;28;20397;-76
2022/10/12 08:25:53;;;;;;;9.05;4.57;;;32.10;1.00;;;;;;5040764;28;20017;-76
2022/10/12 08:28:19;;;;;;;9.45;4.15;;;32.30;1.00;;;;;;5036950;28;20025;-76
2022/10/12 08:30:45;;;;;;;8.30;4.35;;;33.60;1.00;;;;;;5032041;28;20030;-76
2022/10/12 08:33:12;;;;;;;7.32;4.50;;;32.50;1.00;;;;;;5034004;28;20041;-77
2022/10/12 08:35:38;;;;;;;11.90;4.68;;;33.10;1.00;;;;;;5041428;28;20022;-76
2022/10/12 08:38:04;;;;;;;8.55;4.10;;;32.30;1.00;;;;;;5034529;28;20017;-76
2022/10/12 08:40:33;;;;;;;12.63;4.30;;;32.50;1.00;;;;;;5038696;28;20032;-76
2022/10/12 08:43:13;;;;;;;8.68;4.20;;;33.70;1.00;;;;;;5033717;28;20035;-76
2022/10/12 08:46:03;;;;;;;8.23;4.28;;;32.10;1.00;;;;;;5036495;28;20025;-76
2022/10/12 08:48:46;;;;;;;11.23;4.57;;;32.90;1.00;;;;;;5031593;28;20041;-76
2022/10/12 08:51:16;;;;;;;7.60;3.95;;;34.70;1.00;;;;;;5034485;28;20393;-76
2022/10/12 08:53:57;;;;;;;10.45;4.32;;;34.80;1.00;;;;;;5034853;28;20084;-77
2022/10/12 08:56:23;;;;;;;6.97;3.50;;;34.50;1.00;;;;;;5029392;28;20033;-76
2022/10/12 08:58:50;;;;;;;8.70;3.78;;;35.10;1.00;;;;;;5032863;28;20025;-76
2022/10/12 09:01:26;;;;;;;8.20;3.97;;;33.30;1.00;;;;;;5034461;28;20034;-76
2022/10/12 09:04:12;;;;;;;9.40;4.00;;;27.70;1.00;;;;;;5039887;28;20055;-76
2022/10/12 09:07:11;;;;;;;10.55;3.72;;;24.30;1.00;;;;;;5055599;28;20468;-76
2022/10/12 09:10:06;;;;;;;8.70;3.42;;;22.40;1.00;;;;;;5040342;28;20112;-76
2022/10/12 09:12:55;;;;;;;8.07;3.65;;;22.10;1.00;;;;;;5040171;28;20033;-77
2022/10/12 09:15:30;;;;;;;8.63;3.83;;;26.60;1.00;;;;;;5031288;28;20069;-76
2022/10/12 09:17:58;;;;;;;9.05;3.38;;;29.50;1.00;;;;;;5038399;28;20047;-76
2022/10/12 09:20:53;;;;;;;8.70;3.30;;;30.00;1.00;;;;;;5032282;28;20087;-76
2022/10/12 09:23:29;;;;;;;8.63;3.33;;;31.40;1.00;;;;;;5015810;28;20045;-77
2022/10/12 09:26:04;;;;;;;6.60;3.13;;;30.90;1.00;;;;;;5031566;28;20504;-76
2022/10/12 09:28:41;;;;;;;7.95;3.30;;;29.80;1.00;;;;;;5026346;28;20026;-77
2022/10/12 09:31:38;;;;;;;7.13;3.22;;;29.20;1.00;;;;;;5034083;28;20060;-77
2022/10/12 09:34:08;;;;;;;5.68;2.92;;;30.60;1.00;;;;;;5034307;28;20041;-77
2022/10/12 09:36:41;;;;;;;8.57;3.08;;;31.60;1.00;;;;;;5026222;28;20104;-77
2022/10/12 09:39:15;;;;;;;10.77;3.17;;;31.80;1.00;;;;;;5036075;28;20135;-77
2022/10/12 09:41:43;;;;;;;7.38;3.00;;;32.00;1.00;;;;;;5026590;28;20109;-77
2022/10/12 09:44:33;;;;;;;9.50;2.65;;;31.70;1.00;;;;;;5033446;28;20493;-76
2022/10/12 09:47:00;;;;;;;;;;;31.90;1.00;;;;;;5035091;28;20079;-77
2022/10/12 09:49:40;;;;;;;10.55;2.70;;;31.40;1.00;;;;;;5029680;28;19931;-77
2022/10/12 09:52:06;;;;;;;;;;;31.40;1.00;;;;;;5033084;28;20516;-76
2022/10/12 09:54:32;;;;;;;11.98;3.63;;;31.50;1.00;;;;;;5036870;28;19913;-77
2022/10/12 09:56:58;;;;;;;7.97;2.70;;;31.20;1.00;;;;;;5029903;28;20035;-76
2022/10/12 09:59:35;;;;;;;9.55;3.08;;;30.70;1.00;;;;;;5031735;28;20021;-76
2022/10/12 10:02:06;;;;;;;10.10;2.88;;;29.50;1.00;;;;;;5033590;28;20473;-76
2022/10/12 10:04:32;;;;;;;9.05;2.88;;;26.50;1.00;;;;;;5035962;28;20021;-77
2022/10/12 10:07:32;;;;;;;10.43;2.47;;;25.40;1.00;;;;;;5034718;28;20029;-77
2022/10/12 10:10:20;;;;;;;9.43;2.65;;;24.00;1.00;;;;;;5032805;28;20037;-78
2022/10/12 10:12:57;;;;;;;10.85;3.42;;;22.40;1.00;;;;;;5034894;28;20037;-78
2022/10/12 10:15:26;;;;;;;9.60;2.60;;;22.00;1.00;;;;;;5034936;28;20021;-77
2022/10/12 10:17:55;;;;;;;8.43;2.38;;;21.60;1.00;;;;;;5028820;28;20651;-77
2022/10/12 10:20:49;;;;;;;13.10;4.28;;;20.70;1.00;;;;;;5025887;28;20033;-78
2022/10/12 10:23:25;;;;;;;12.02;4.00;;;19.80;1.00;;;;;;5019539;28;20029;-77
2022/10/12 10:26:03;;;;;;;4.40;1.90;;;19.80;1.00;;;;;;5022954;28;20084;-78
2022/10/12 10:28:32;;;;;;;13.05;3.72;;;19.40;1.00;;;;;;5037912;28;20025;-78
2022/10/12 10:31:01;;;;;;;14.18;5.03;;;19.50;1.00;;;;;;5032264;28;20031;-78
2022/10/12 10:33:28;;;;;;;10.45;3.80;;;19.60;1.00;;;;;;5022192;28;20121;-78
2022/10/12 10:35:57;;;;;;;9.63;2.60;;;19.20;1.00;;;;;;5014696;28;20062;-77
2022/10/12 10:38:23;;;;;;;14.98;3.78;;;19.10;1.00;;;;;;5034710;28;20029;-78
2022/10/12 10:40:55;;;;;;;10.52;2.60;;;18.80;1.00;;;;;;5025355;28;20048;-77
2022/10/12 10:43:27;;;;;;;8.40;3.17;;;18.70;1.00;;;;;;5031495;28;20025;-77
2022/10/12 10:46:02;;;;;;;14.20;3.72;;;18.70;1.00;;;;;;5035661;28;20025;-76
2022/10/12 10:48:50;;;;;;;14.35;4.05;;;18.60;1.00;;;;;;5029587;28;20048;-77
2022/10/12 10:51:16;;;;;;;15.55;4.50;;;18.60;1.00;;;;;;5025958;28;20570;-76
2022/10/12 10:53:47;;;;;;;17.70;4.05;;;18.50;1.00;;;;;;5033707;28;20112;-76
2022/10/12 10:56:28;;;;;;;14.32;3.80;;;18.50;1.00;;;;;;5025932;28;20025;-76
2022/10/12 10:59:02;;;;;;;22.05;7.20;;;18.40;1.00;;;;;;5031700;28;20120;-75
2022/10/12 11:01:27;;;;;;;16.33;4.70;;;18.30;1.00;;;;;;5016327;28;20080;-76
2022/10/12 11:04:01;;;;;;;20.55;6.95;;;18.50;1.00;;;;;;5015543;28;20026;-75
2022/10/12 11:06:46;;;;;;;21.02;5.72;;;18.30;1.00;;;;;;5028341;28;20026;-75
2022/10/12 11:09:30;;;;;;;14.25;4.63;;;18.10;1.00;;;;;;5029143;28;21679;-76
2022/10/12 11:12:02;;;;;;;14.77;3.38;;;18.20;1.00;;;;;;5028050;28;20037;-76
2022/10/12 11:14:35;;;;;;;10.18;1.83;;;18.20;1.00;;;;;;5026812;28;20022;-76
2022/10/12 11:17:11;;;;;;;12.75;3.30;;;18.20;1.00;;;;;;5032621;28;20037;-76
2022/10/12 11:20:08;;;;;;;10.27;2.72;;;18.30;1.00;;;;;;5035876;28;20021;-74
2022/10/12 11:22:45;;;;;;;7.45;1.95;;;18.40;1.00;;;;;;5031594;28;20049;-75
2022/10/12 11:25:23;;;;;;;6.25;1.67;;;18.50;1.00;;;;;;5037091;28;20025;-75
2022/10/12 11:27:50;;;;;;;10.10;1.70;;;18.40;1.00;;;;;;5035858;28;20029;-75
2022/10/12 11:30:19;;;;;;;7.30;2.20;;;18.50;1.00;;;;;;5038078;28;20111;-75
2022/10/12 11:32:50;;;;;;;10.37;1.90;;;18.40;1.00;;;;;;5035505;28;20053;-75
2022/10/12 11:35:40;;;;;;;9.13;2.03;;;18.60;1.00;;;;;;5039980;28;20041;-75
2022/10/12 11:38:15;;;;;;;6.07;1.88;;;18.50;1.00;;;;;;5038421;28;20057;-75
2022/10/12 11:40:54;;;;;;;6.22;1.55;;;18.50;1.00;;;;;;5035500;28;20151;-75
2022/10/12 11:43:23;;;;;;;6.80;1.67;;;18.30;1.00;;;;;;5039312;28;20030;-75
2022/10/12 11:45:53;;;;;;;11.38;2.08;;;18.60;1.00;;;;;;5037329;28;20527;-75
2022/10/12 11:48:25;;;;;;;7.60;2.00;;;18.50;1.00;;;;;;5035827;28;20072;-75
2022/10/12 11:50:51;;;;;;;9.25;1.60;;;18.50;1.00;;;;;;5038618;28;20040;-74
2022/10/12 11:53:51;;;;;;;5.15;1.50;;;18.40;1.00;;;;;;5033772;28;20496;-75
2022/10/12 11:56:33;;;;;;;7.20;1.30;;;18.60;1.00;;;;;;5040002;28;20041;-76
2022/10/12 11:59:12;;;;;;;8.57;1.52;;;18.30;1.00;;;;;;5036559;28;20041;-75
2022/10/12 12:01:53;;;;;;;8.13;1.58;;;18.40;1.00;;;;;;5034940;28;20033;-76
2022/10/12 12:04:24;;;;;;;6.35;1.80;;;18.70;1.00;;;;;;5035344;28;20053;-76
2022/10/12 12:06:57;;;;;;;11.27;1.92;;;18.70;1.00;;;;;;5034580;28;20075;-76
2022/10/12 12:09:41;;;;;;;5.38;1.35;;;18.60;1.00;;;;;;5030536;28;20033;-76
2022/10/12 12:12:27;;;;;;;10.93;1.83;;;18.70;1.00;;;;;;5021545;28;20125;-76
2022/10/12 12:14:52;;;;;;;7.38;1.63;;;18.60;1.00;;;;;;5036589;28;20108;-76
2022/10/12 12:17:18;;;;;;;10.52;1.85;;;18.40;1.00;;;;;;5020610;28;20106;-76
2022/10/12 12:19:45;;;;;;;6.50;1.98;;;18.30;1.00;;;;;;5037386;28;20842;-76
2022/10/12 12:22:30;;;;;;;11.18;1.98;;;18.30;1.00;;;;;;5038052;28;20029;-76
2022/10/12 12:25:11;;;;;;;9.68;2.15;;;18.60;1.00;;;;;;5027610;28;20021;-76
2022/10/12 12:27:47;;;;;;;10.40;1.92;;;18.40;1.00;;;;;;5034805;28;20036;-75
2022/10/12 12:30:19;;;;;;;10.77;2.35;;;18.30;1.00;;;;;;5038046;28;20065;-76
2022/10/12 12:32:58;;;;;;;9.20;2.30;;;18.50;1.00;;;;;;5034578;28;20447;-76
2022/10/12 12:35:28;;;;;;;10.98;2.63;;;18.30;1.00;;;;;;5026128;28;20030;-76
2022/10/12 12:38:10;;;;;;;9.27;2.28;;;18.40;1.00;;;;;;5027010;28;20033;-76
2022/10/12 12:40:37;;;;;;;9.32;2.40;;;18.30;1.00;;;;;;5040651;28;20021;-76
2022/10/12 12:43:19;;;;;;;6.38;2.50;;;18.40;1.00;;;;;;5045483;28;20033;-76
2022/10/12 12:46:00;;;;;;;14.25;2.85;;;18.70;1.00;;;;;;5032688;28;20024;-76
2022/10/12 12:48:38;;;;;;;9.68;3.15;;;18.40;1.00;;;;;;5036625;28;20115;-75
2022/10/12 12:51:26;;;;;;;12.13;3.33;;;18.40;1.00;;;;;;5034531;28;20029;-76
2022/10/12 12:53:58;;;;;;;9.30;2.70;;;18.30;1.00;;;;;;5031876;28;20083;-76
2022/10/12 12:56:40;;;;;;;9.77;2.88;;;18.50;1.00;;;;;;5034519;28;20037;-76
2022/10/12 12:59:45;;;;;;;7.88;2.85;;;18.30;1.00;;;;;;5034616;28;20415;-76
2022/10/12 13:02:23;;;;;;;9.63;2.25;;;18.10;1.00;;;;;;5031235;28;20076;-75
2022/10/12 13:05:13;;;;;;;8.38;2.40;;;18.30;1.00;;;;;;5026358;28;20112;-75
2022/10/12 13:07:44;;;;;;;6.28;2.10;;;18.20;1.00;;;;;;5032715;28;20029;-76
2022/10/12 13:10:36;;;;;;;5.88;2.00;;;17.90;1.00;;;;;;5034881;28;20079;-75
2022/10/12 13:13:27;;;;;;;9.05;2.80;;;17.70;1.00;;;;;;5027508;28;20037;-75
2022/10/12 13:16:26;;;;;;;19.05;5.90;;;17.30;1.00;;;;;;5026202;28;20120;-75